CSN3764 ZSWZ-ZGGG
Flight info
| Callsign | CSN3764 |
|---|---|
| Flight time | 1h 38m |
| Altitude | 30100 |
| Route | RUPOX B221 LJG A470 TEBON W155 VETIB DCT NUVGA DCT XEBUL DCT MABAG DCT OLPAB |
| Aircraft | A320/M-SDE3FGHIRWY/LB1 |
Departure
| Time | 2026-05-06 06:43 |
|---|---|
| Airport | Wenzhou Longwan International Airport (ZSWZ) |
Arrival
| Time | 2026-05-06 08:21 |
|---|---|
| Airport | Guangzhou Baiyun International Airport (ZGGG) |
| Time | Latitude | Longitude | Altitude | Speed | Heading |
|---|---|---|---|---|---|
| 2026-05-06 06:38 | 27.90771 | 120.84605 | 19 ft | 7 kts | 208° |
| 2026-05-06 06:38 | 27.90717 | 120.84573 | 16 ft | 10 kts | 202° |
| 2026-05-06 06:39 | 27.90662 | 120.84619 | 16 ft | 12 kts | 117° |
| 2026-05-06 06:39 | 27.90621 | 120.84707 | 15 ft | 14 kts | 118° |
| 2026-05-06 06:39 | 27.90553 | 120.84737 | 15 ft | 16 kts | 207° |
| 2026-05-06 06:39 | 27.90419 | 120.84657 | 15 ft | 24 kts | 208° |
| 2026-05-06 06:40 | 27.90266 | 120.84564 | 15 ft | 26 kts | 210° |
| 2026-05-06 06:40 | 27.90102 | 120.84465 | 15 ft | 27 kts | 207° |
| 2026-05-06 06:40 | 27.89932 | 120.84361 | 15 ft | 29 kts | 207° |
| 2026-05-06 06:40 | 27.89787 | 120.84274 | 15 ft | 18 kts | 208° |
| 2026-05-06 06:41 | 27.89695 | 120.84243 | 15 ft | 12 kts | 153° |
| 2026-05-06 06:41 | 27.89647 | 120.84328 | 15 ft | 14 kts | 117° |
| 2026-05-06 06:41 | 27.89607 | 120.84415 | 15 ft | 8 kts | 117° |
| 2026-05-06 06:41 | 27.89595 | 120.84458 | 15 ft | 2 kts | 53° |
| 2026-05-06 06:42 | 27.89615 | 120.84471 | 16 ft | 3 kts | 27° |
| 2026-05-06 06:42 | 27.89730 | 120.84539 | 16 ft | 50 kts | 28° |
| 2026-05-06 06:42 | 27.90263 | 120.84863 | 15 ft | 119 kts | 28° |
| 2026-05-06 06:42 | 27.91156 | 120.85405 | 22 ft | 169 kts | 30° |
| 2026-05-06 06:43 | 27.92201 | 120.86013 | 732 ft | 163 kts | 30° |
| 2026-05-06 06:43 | 27.93202 | 120.86613 | 1508 ft | 162 kts | 31° |
| 2026-05-06 06:43 | 27.94209 | 120.87226 | 2031 ft | 173 kts | 30° |
| 2026-05-06 06:43 | 27.95323 | 120.87910 | 2325 ft | 193 kts | 29° |
| 2026-05-06 06:44 | 27.96137 | 120.88407 | 2503 ft | 208 kts | 29° |
| 2026-05-06 06:44 | 27.97478 | 120.89223 | 2898 ft | 225 kts | 28° |
| 2026-05-06 06:44 | 27.99335 | 120.90344 | 3959 ft | 228 kts | 27° |
| 2026-05-06 06:44 | 28.00262 | 120.90903 | 4477 ft | 229 kts | 27° |
| 2026-05-06 06:45 | 28.01684 | 120.91747 | 5237 ft | 232 kts | 22° |
| 2026-05-06 06:45 | 28.03258 | 120.92021 | 5922 ft | 233 kts | 348° |
| 2026-05-06 06:45 | 28.04703 | 120.91251 | 6618 ft | 232 kts | 314° |
| 2026-05-06 06:45 | 28.05569 | 120.89860 | 7290 ft | 232 kts | 297° |
| 2026-05-06 06:46 | 28.06334 | 120.88244 | 8048 ft | 233 kts | 297° |
| 2026-05-06 06:46 | 28.07097 | 120.86615 | 8797 ft | 235 kts | 297° |
| 2026-05-06 06:46 | 28.07664 | 120.84889 | 9505 ft | 236 kts | 274° |
| 2026-05-06 06:46 | 28.07380 | 120.83063 | 10129 ft | 243 kts | 244° |
| 2026-05-06 06:47 | 28.06185 | 120.81613 | 10383 ft | 269 kts | 213° |
| 2026-05-06 06:47 | 28.04471 | 120.80534 | 10624 ft | 293 kts | 210° |
| 2026-05-06 06:47 | 28.02589 | 120.79418 | 10825 ft | 317 kts | 209° |
| 2026-05-06 06:47 | 28.00553 | 120.78226 | 10991 ft | 340 kts | 209° |
| 2026-05-06 06:48 | 27.98409 | 120.76966 | 11404 ft | 352 kts | 209° |
| 2026-05-06 06:48 | 27.96220 | 120.75668 | 12016 ft | 357 kts | 210° |
| 2026-05-06 06:48 | 27.94011 | 120.74347 | 12654 ft | 361 kts | 210° |
| 2026-05-06 06:48 | 27.91779 | 120.73008 | 13282 ft | 365 kts | 210° |
| 2026-05-06 06:49 | 27.89519 | 120.71653 | 13909 ft | 370 kts | 209° |
| 2026-05-06 06:49 | 27.87234 | 120.70289 | 14457 ft | 374 kts | 210° |
| 2026-05-06 06:49 | 27.84915 | 120.68907 | 15014 ft | 378 kts | 210° |
| 2026-05-06 06:49 | 27.82602 | 120.67531 | 15542 ft | 383 kts | 210° |
| 2026-05-06 06:50 | 27.80236 | 120.66123 | 16082 ft | 387 kts | 210° |
| 2026-05-06 06:50 | 27.77817 | 120.64679 | 16617 ft | 391 kts | 210° |
| 2026-05-06 06:50 | 27.75430 | 120.63253 | 17135 ft | 395 kts | 210° |
| 2026-05-06 06:50 | 27.73027 | 120.61725 | 17668 ft | 398 kts | 213° |
| 2026-05-06 06:51 | 27.70665 | 120.60085 | 18184 ft | 401 kts | 214° |
| 2026-05-06 06:51 | 27.68310 | 120.58370 | 18637 ft | 404 kts | 215° |
| 2026-05-06 06:51 | 27.65951 | 120.56621 | 19097 ft | 407 kts | 216° |
| 2026-05-06 06:51 | 27.63574 | 120.54865 | 19564 ft | 409 kts | 215° |
| 2026-05-06 06:52 | 27.61177 | 120.53115 | 20019 ft | 412 kts | 215° |
| 2026-05-06 06:52 | 27.58751 | 120.51365 | 20477 ft | 415 kts | 215° |
| 2026-05-06 06:52 | 27.56305 | 120.49616 | 20933 ft | 417 kts | 214° |
| 2026-05-06 06:52 | 27.53845 | 120.47865 | 21376 ft | 420 kts | 214° |
| 2026-05-06 06:53 | 27.51370 | 120.46108 | 21827 ft | 422 kts | 214° |
| 2026-05-06 06:53 | 27.48872 | 120.44339 | 22283 ft | 425 kts | 214° |
| 2026-05-06 06:53 | 27.46365 | 120.42564 | 22718 ft | 427 kts | 214° |
| 2026-05-06 06:53 | 27.43845 | 120.40774 | 23159 ft | 429 kts | 215° |
| 2026-05-06 06:54 | 27.41315 | 120.38975 | 23573 ft | 432 kts | 215° |
| 2026-05-06 06:54 | 27.38771 | 120.37164 | 23923 ft | 434 kts | 215° |
| 2026-05-06 06:54 | 27.36214 | 120.35347 | 24272 ft | 436 kts | 215° |
| 2026-05-06 06:54 | 27.33638 | 120.33520 | 24622 ft | 438 kts | 215° |
| 2026-05-06 06:55 | 27.31058 | 120.31692 | 24985 ft | 440 kts | 215° |
| 2026-05-06 06:55 | 27.28458 | 120.29853 | 25335 ft | 442 kts | 215° |
| 2026-05-06 06:55 | 27.25850 | 120.28009 | 25689 ft | 444 kts | 215° |
| 2026-05-06 06:55 | 27.23234 | 120.26161 | 26043 ft | 446 kts | 215° |
| 2026-05-06 06:56 | 27.20593 | 120.24300 | 26401 ft | 448 kts | 215° |
| 2026-05-06 06:56 | 27.17948 | 120.22434 | 26757 ft | 450 kts | 215° |
| 2026-05-06 06:56 | 27.15295 | 120.20565 | 27096 ft | 452 kts | 215° |
| 2026-05-06 06:56 | 27.12630 | 120.18688 | 27411 ft | 454 kts | 216° |
| 2026-05-06 06:57 | 27.09945 | 120.16790 | 27707 ft | 456 kts | 216° |
| 2026-05-06 06:57 | 27.07292 | 120.14905 | 28052 ft | 458 kts | 216° |
| 2026-05-06 06:57 | 27.04598 | 120.12986 | 28380 ft | 460 kts | 216° |
| 2026-05-06 06:57 | 27.01879 | 120.11049 | 28685 ft | 462 kts | 216° |
| 2026-05-06 06:58 | 26.99155 | 120.09112 | 28997 ft | 464 kts | 216° |
| 2026-05-06 06:58 | 26.96418 | 120.07170 | 29313 ft | 466 kts | 216° |
| 2026-05-06 06:58 | 26.93676 | 120.05226 | 29623 ft | 468 kts | 216° |
| 2026-05-06 06:58 | 26.90923 | 120.03273 | 29920 ft | 470 kts | 216° |
| 2026-05-06 06:59 | 26.88163 | 120.01317 | 30080 ft | 469 kts | 216° |
| 2026-05-06 06:59 | 26.82734 | 119.97475 | 30106 ft | 457 kts | 216° |
| 2026-05-06 07:00 | 26.77368 | 119.93687 | 30107 ft | 456 kts | 216° |
| 2026-05-06 07:00 | 26.72007 | 119.89913 | 30118 ft | 455 kts | 216° |
| 2026-05-06 07:01 | 26.66640 | 119.86134 | 30110 ft | 455 kts | 216° |
| 2026-05-06 07:01 | 26.61274 | 119.82370 | 30105 ft | 455 kts | 216° |
| 2026-05-06 07:02 | 26.55923 | 119.78607 | 30105 ft | 455 kts | 216° |
| 2026-05-06 07:02 | 26.50606 | 119.74867 | 30107 ft | 454 kts | 215° |
| 2026-05-06 07:03 | 26.45248 | 119.71115 | 30115 ft | 454 kts | 215° |
| 2026-05-06 07:03 | 26.39902 | 119.67365 | 30118 ft | 454 kts | 215° |
| 2026-05-06 07:04 | 26.34549 | 119.63608 | 30116 ft | 454 kts | 215° |
| 2026-05-06 07:04 | 26.29201 | 119.59865 | 30112 ft | 454 kts | 215° |
| 2026-05-06 07:05 | 26.23850 | 119.56140 | 30113 ft | 454 kts | 213° |
| 2026-05-06 07:05 | 26.17966 | 119.53444 | 30114 ft | 459 kts | 200° |
| 2026-05-06 07:06 | 26.11849 | 119.51359 | 30117 ft | 460 kts | 200° |
| 2026-05-06 07:06 | 26.05768 | 119.49295 | 30111 ft | 460 kts | 200° |
| 2026-05-06 07:07 | 25.99651 | 119.47212 | 30113 ft | 459 kts | 200° |
| 2026-05-06 07:07 | 25.93533 | 119.45139 | 30103 ft | 459 kts | 200° |
| 2026-05-06 07:08 | 25.87431 | 119.43070 | 30107 ft | 459 kts | 200° |
| 2026-05-06 07:08 | 25.81307 | 119.40985 | 30100 ft | 459 kts | 200° |
| 2026-05-06 07:09 | 25.75361 | 119.38508 | 30093 ft | 453 kts | 212° |
| 2026-05-06 07:09 | 25.70423 | 119.34305 | 30091 ft | 445 kts | 230° |
| 2026-05-06 07:10 | 25.66179 | 119.29296 | 30089 ft | 445 kts | 229° |
| 2026-05-06 07:10 | 25.61928 | 119.24307 | 30084 ft | 445 kts | 229° |
| 2026-05-06 07:11 | 25.57676 | 119.19331 | 30078 ft | 445 kts | 229° |
| 2026-05-06 07:11 | 25.53428 | 119.14354 | 30079 ft | 444 kts | 229° |
| 2026-05-06 07:12 | 25.49220 | 119.09416 | 30078 ft | 444 kts | 229° |
| 2026-05-06 07:12 | 25.44976 | 119.04448 | 30072 ft | 443 kts | 229° |
| 2026-05-06 07:13 | 25.40736 | 118.99498 | 30069 ft | 443 kts | 229° |
| 2026-05-06 07:13 | 25.36496 | 118.94552 | 30068 ft | 443 kts | 229° |
| 2026-05-06 07:14 | 25.32267 | 118.89599 | 30065 ft | 442 kts | 230° |
| 2026-05-06 07:14 | 25.28125 | 118.84592 | 30063 ft | 441 kts | 230° |
| 2026-05-06 07:15 | 25.24011 | 118.79568 | 30057 ft | 441 kts | 231° |
| 2026-05-06 07:15 | 25.19884 | 118.74550 | 30060 ft | 441 kts | 230° |
| 2026-05-06 07:16 | 25.15742 | 118.69549 | 30056 ft | 441 kts | 230° |
| 2026-05-06 07:16 | 25.11594 | 118.64560 | 30056 ft | 441 kts | 230° |
| 2026-05-06 07:17 | 25.07466 | 118.59634 | 30058 ft | 441 kts | 229° |
| 2026-05-06 07:17 | 25.03215 | 118.54743 | 30057 ft | 441 kts | 229° |
| 2026-05-06 07:18 | 24.98938 | 118.49892 | 30053 ft | 441 kts | 229° |
| 2026-05-06 07:18 | 24.94672 | 118.45030 | 30054 ft | 441 kts | 229° |
| 2026-05-06 07:19 | 24.90427 | 118.40166 | 30055 ft | 441 kts | 229° |
| 2026-05-06 07:19 | 24.86175 | 118.35290 | 30052 ft | 441 kts | 229° |
| 2026-05-06 07:20 | 24.81925 | 118.30428 | 30054 ft | 441 kts | 229° |
| 2026-05-06 07:20 | 24.77673 | 118.25570 | 30056 ft | 441 kts | 229° |
| 2026-05-06 07:21 | 24.73414 | 118.20716 | 30056 ft | 441 kts | 229° |
| 2026-05-06 07:21 | 24.69152 | 118.15869 | 30058 ft | 441 kts | 229° |
| 2026-05-06 07:22 | 24.64917 | 118.11051 | 30057 ft | 441 kts | 229° |
| 2026-05-06 07:22 | 24.60653 | 118.06210 | 30057 ft | 441 kts | 229° |
| 2026-05-06 07:23 | 24.56384 | 118.01372 | 30057 ft | 441 kts | 229° |
| 2026-05-06 07:23 | 24.52211 | 117.96444 | 30053 ft | 440 kts | 231° |
| 2026-05-06 07:24 | 24.48132 | 117.91436 | 30055 ft | 440 kts | 231° |
| 2026-05-06 07:24 | 24.44039 | 117.86436 | 30053 ft | 440 kts | 231° |
| 2026-05-06 07:25 | 24.39919 | 117.81462 | 30053 ft | 440 kts | 231° |
| 2026-05-06 07:25 | 24.35790 | 117.76494 | 30053 ft | 440 kts | 231° |
| 2026-05-06 07:26 | 24.31663 | 117.71534 | 30057 ft | 440 kts | 231° |
| 2026-05-06 07:26 | 24.27537 | 117.66582 | 30056 ft | 440 kts | 230° |
| 2026-05-06 07:27 | 24.23408 | 117.61623 | 30063 ft | 440 kts | 230° |
| 2026-05-06 07:27 | 24.19285 | 117.56679 | 30062 ft | 440 kts | 230° |
| 2026-05-06 07:28 | 24.16157 | 117.52329 | 30055 ft | 435 kts | 242° |
| 2026-05-06 07:28 | 24.13875 | 117.41866 | 30055 ft | 429 kts | 271° |
| 2026-05-06 07:29 | 24.13934 | 117.36391 | 30053 ft | 429 kts | 271° |
| 2026-05-06 07:29 | 24.13991 | 117.29851 | 30059 ft | 430 kts | 271° |
| 2026-05-06 07:30 | 24.14039 | 117.23309 | 30055 ft | 430 kts | 271° |
| 2026-05-06 07:30 | 24.14090 | 117.16804 | 30055 ft | 430 kts | 271° |
| 2026-05-06 07:31 | 24.14138 | 117.10253 | 30060 ft | 430 kts | 270° |
| 2026-05-06 07:31 | 24.14177 | 117.03696 | 30064 ft | 430 kts | 270° |
| 2026-05-06 07:32 | 24.14214 | 116.97146 | 30060 ft | 431 kts | 270° |
| 2026-05-06 07:32 | 24.14253 | 116.90590 | 30060 ft | 431 kts | 270° |
| 2026-05-06 07:33 | 24.14310 | 116.84032 | 30058 ft | 430 kts | 271° |
| 2026-05-06 07:33 | 24.14561 | 116.77475 | 30054 ft | 431 kts | 273° |
| 2026-05-06 07:34 | 24.14897 | 116.70929 | 30063 ft | 431 kts | 273° |
| 2026-05-06 07:34 | 24.15200 | 116.64373 | 30058 ft | 431 kts | 272° |
| 2026-05-06 07:35 | 24.15458 | 116.57824 | 30059 ft | 431 kts | 272° |
| 2026-05-06 07:35 | 24.15701 | 116.51301 | 30055 ft | 431 kts | 272° |
| 2026-05-06 07:36 | 24.15955 | 116.44710 | 30053 ft | 431 kts | 272° |
| 2026-05-06 07:36 | 24.16315 | 116.38207 | 30050 ft | 431 kts | 274° |
| 2026-05-06 07:37 | 24.16855 | 116.31622 | 30055 ft | 431 kts | 275° |
| 2026-05-06 07:37 | 24.17395 | 116.25136 | 30049 ft | 431 kts | 275° |
| 2026-05-06 07:38 | 24.17893 | 116.18589 | 30051 ft | 431 kts | 274° |
| 2026-05-06 07:38 | 24.18367 | 116.12048 | 30051 ft | 431 kts | 274° |
| 2026-05-06 07:39 | 24.18846 | 116.05506 | 30044 ft | 431 kts | 274° |
| 2026-05-06 07:39 | 24.19322 | 115.98966 | 30042 ft | 431 kts | 274° |
| 2026-05-06 07:40 | 24.19794 | 115.92424 | 30042 ft | 431 kts | 274° |
| 2026-05-06 07:40 | 24.20261 | 115.85881 | 30041 ft | 431 kts | 274° |
| 2026-05-06 07:41 | 24.20735 | 115.79339 | 30043 ft | 431 kts | 274° |
| 2026-05-06 07:41 | 24.21205 | 115.72791 | 30040 ft | 431 kts | 274° |
| 2026-05-06 07:42 | 24.21669 | 115.66241 | 30037 ft | 431 kts | 274° |
| 2026-05-06 07:42 | 24.22127 | 115.59735 | 30039 ft | 431 kts | 274° |
| 2026-05-06 07:43 | 24.22586 | 115.53159 | 30042 ft | 431 kts | 274° |
| 2026-05-06 07:43 | 24.23034 | 115.46643 | 30040 ft | 431 kts | 274° |
| 2026-05-06 07:44 | 24.23519 | 115.40097 | 29950 ft | 432 kts | 275° |
| 2026-05-06 07:44 | 24.23808 | 115.36815 | 29552 ft | 433 kts | 275° |
| 2026-05-06 07:44 | 24.24115 | 115.33536 | 29157 ft | 433 kts | 275° |
| 2026-05-06 07:45 | 24.24423 | 115.30261 | 28766 ft | 432 kts | 275° |
| 2026-05-06 07:45 | 24.24723 | 115.26985 | 28372 ft | 430 kts | 275° |
| 2026-05-06 07:45 | 24.25013 | 115.23731 | 27988 ft | 428 kts | 275° |
| 2026-05-06 07:45 | 24.25297 | 115.20498 | 27620 ft | 426 kts | 275° |
| 2026-05-06 07:46 | 24.25577 | 115.17271 | 27250 ft | 424 kts | 275° |
| 2026-05-06 07:46 | 24.25854 | 115.14062 | 26886 ft | 422 kts | 274° |
| 2026-05-06 07:46 | 24.26126 | 115.10881 | 26526 ft | 420 kts | 274° |
| 2026-05-06 07:46 | 24.26400 | 115.07688 | 26171 ft | 418 kts | 274° |
| 2026-05-06 07:47 | 24.26672 | 115.04531 | 25816 ft | 416 kts | 274° |
| 2026-05-06 07:47 | 24.26946 | 115.01380 | 25565 ft | 414 kts | 274° |
| 2026-05-06 07:47 | 24.27216 | 114.98244 | 25546 ft | 414 kts | 274° |
| 2026-05-06 07:47 | 24.27482 | 114.95104 | 25556 ft | 414 kts | 274° |
| 2026-05-06 07:48 | 24.27746 | 114.91956 | 25556 ft | 414 kts | 274° |
| 2026-05-06 07:48 | 24.28010 | 114.88810 | 25556 ft | 414 kts | 274° |
| 2026-05-06 07:48 | 24.28274 | 114.85671 | 25555 ft | 414 kts | 274° |
| 2026-05-06 07:48 | 24.28540 | 114.82569 | 25556 ft | 414 kts | 274° |
| 2026-05-06 07:49 | 24.28820 | 114.79429 | 25552 ft | 414 kts | 275° |
| 2026-05-06 07:49 | 24.29104 | 114.76291 | 25560 ft | 413 kts | 275° |
| 2026-05-06 07:49 | 24.29384 | 114.73159 | 25559 ft | 413 kts | 275° |
| 2026-05-06 07:49 | 24.29660 | 114.70034 | 25561 ft | 413 kts | 275° |
| 2026-05-06 07:50 | 24.29935 | 114.66898 | 25561 ft | 412 kts | 275° |
| 2026-05-06 07:50 | 24.30206 | 114.63775 | 25561 ft | 412 kts | 275° |
| 2026-05-06 07:50 | 24.30476 | 114.60644 | 25559 ft | 412 kts | 275° |
| 2026-05-06 07:50 | 24.30707 | 114.57512 | 25564 ft | 412 kts | 271° |
| 2026-05-06 07:51 | 24.30556 | 114.54376 | 25560 ft | 411 kts | 262° |
| 2026-05-06 07:51 | 24.29935 | 114.51318 | 25562 ft | 411 kts | 253° |
| 2026-05-06 07:51 | 24.28869 | 114.48411 | 25566 ft | 412 kts | 244° |
| 2026-05-06 07:51 | 24.27380 | 114.45719 | 25563 ft | 414 kts | 235° |
| 2026-05-06 07:52 | 24.25546 | 114.43281 | 25564 ft | 415 kts | 231° |
| 2026-05-06 07:52 | 24.23686 | 114.40919 | 25565 ft | 415 kts | 231° |
| 2026-05-06 07:52 | 24.21826 | 114.38553 | 25562 ft | 415 kts | 231° |
| 2026-05-06 07:52 | 24.19940 | 114.36150 | 25565 ft | 415 kts | 231° |
| 2026-05-06 07:53 | 24.18057 | 114.33748 | 25565 ft | 416 kts | 231° |
| 2026-05-06 07:53 | 24.16180 | 114.31356 | 25561 ft | 415 kts | 231° |
| 2026-05-06 07:53 | 24.14289 | 114.28954 | 25550 ft | 416 kts | 231° |
| 2026-05-06 07:53 | 24.12399 | 114.26555 | 25315 ft | 414 kts | 231° |
| 2026-05-06 07:54 | 24.10522 | 114.24171 | 25098 ft | 413 kts | 231° |
| 2026-05-06 07:54 | 24.08709 | 114.21737 | 24865 ft | 410 kts | 236° |
| 2026-05-06 07:54 | 24.07212 | 114.19090 | 24629 ft | 408 kts | 243° |
| 2026-05-06 07:54 | 24.05899 | 114.16358 | 24422 ft | 406 kts | 244° |
| 2026-05-06 07:55 | 24.04583 | 114.13620 | 24203 ft | 404 kts | 243° |
| 2026-05-06 07:55 | 24.03275 | 114.10905 | 23979 ft | 403 kts | 243° |
| 2026-05-06 07:55 | 24.01968 | 114.08201 | 23759 ft | 402 kts | 243° |
| 2026-05-06 07:55 | 24.00662 | 114.05502 | 23541 ft | 400 kts | 243° |
| 2026-05-06 07:56 | 23.99358 | 114.02813 | 23285 ft | 399 kts | 243° |
| 2026-05-06 07:56 | 23.98061 | 114.00141 | 23026 ft | 397 kts | 243° |
| 2026-05-06 07:56 | 23.96770 | 113.97481 | 22768 ft | 396 kts | 243° |
| 2026-05-06 07:56 | 23.95481 | 113.94829 | 22514 ft | 394 kts | 243° |
| 2026-05-06 07:57 | 23.94196 | 113.92184 | 22259 ft | 393 kts | 243° |
| 2026-05-06 07:57 | 23.92920 | 113.89556 | 22005 ft | 391 kts | 243° |
| 2026-05-06 07:57 | 23.91646 | 113.86935 | 21761 ft | 390 kts | 243° |
| 2026-05-06 07:57 | 23.90379 | 113.84325 | 21513 ft | 388 kts | 243° |
| 2026-05-06 07:58 | 23.89121 | 113.81728 | 21269 ft | 387 kts | 243° |
| 2026-05-06 07:58 | 23.87881 | 113.79173 | 21031 ft | 385 kts | 243° |
| 2026-05-06 07:58 | 23.86624 | 113.76588 | 20798 ft | 383 kts | 243° |
| 2026-05-06 07:58 | 23.85373 | 113.74021 | 20555 ft | 382 kts | 243° |
| 2026-05-06 07:59 | 23.84128 | 113.71471 | 20319 ft | 380 kts | 243° |
| 2026-05-06 07:59 | 23.82882 | 113.68920 | 20080 ft | 379 kts | 243° |
| 2026-05-06 07:59 | 23.81649 | 113.66400 | 19853 ft | 377 kts | 241° |
| 2026-05-06 07:59 | 23.80204 | 113.64006 | 19616 ft | 377 kts | 233° |
| 2026-05-06 08:00 | 23.78437 | 113.61879 | 19381 ft | 377 kts | 225° |
| 2026-05-06 08:00 | 23.76408 | 113.60071 | 19167 ft | 377 kts | 217° |
| 2026-05-06 08:00 | 23.74299 | 113.58601 | 18941 ft | 377 kts | 214° |
| 2026-05-06 08:00 | 23.72073 | 113.57088 | 18716 ft | 376 kts | 214° |
| 2026-05-06 08:01 | 23.69857 | 113.55584 | 18500 ft | 375 kts | 214° |
| 2026-05-06 08:01 | 23.67645 | 113.54085 | 18278 ft | 374 kts | 214° |
| 2026-05-06 08:01 | 23.65440 | 113.52592 | 18026 ft | 373 kts | 214° |
| 2026-05-06 08:01 | 23.63265 | 113.51103 | 17773 ft | 371 kts | 216° |
| 2026-05-06 08:02 | 23.62551 | 113.50537 | 17680 ft | 369 kts | 220° |
| 2026-05-06 08:02 | 23.58937 | 113.46054 | 17134 ft | 363 kts | 240° |
| 2026-05-06 08:02 | 23.57603 | 113.42836 | 16821 ft | 361 kts | 251° |
| 2026-05-06 08:03 | 23.56784 | 113.40250 | 16571 ft | 360 kts | 251° |
| 2026-05-06 08:03 | 23.55957 | 113.37673 | 16325 ft | 359 kts | 251° |
| 2026-05-06 08:03 | 23.55137 | 113.35136 | 16088 ft | 358 kts | 251° |
| 2026-05-06 08:03 | 23.54309 | 113.32588 | 15843 ft | 357 kts | 251° |
| 2026-05-06 08:04 | 23.53473 | 113.30008 | 15604 ft | 356 kts | 251° |
| 2026-05-06 08:04 | 23.52664 | 113.27504 | 15265 ft | 354 kts | 251° |
| 2026-05-06 08:04 | 23.51697 | 113.25049 | 14899 ft | 353 kts | 241° |
| 2026-05-06 08:04 | 23.50242 | 113.22900 | 14533 ft | 353 kts | 228° |
| 2026-05-06 08:05 | 23.48352 | 113.21187 | 14166 ft | 355 kts | 215° |
| 2026-05-06 08:05 | 23.46132 | 113.20005 | 13808 ft | 358 kts | 201° |
| 2026-05-06 08:05 | 23.43711 | 113.19375 | 13407 ft | 359 kts | 194° |
| 2026-05-06 08:05 | 23.41264 | 113.18868 | 13006 ft | 357 kts | 194° |
| 2026-05-06 08:06 | 23.38838 | 113.18360 | 12608 ft | 354 kts | 194° |
| 2026-05-06 08:06 | 23.36425 | 113.17852 | 12217 ft | 351 kts | 194° |
| 2026-05-06 08:06 | 23.34035 | 113.17347 | 11827 ft | 349 kts | 194° |
| 2026-05-06 08:06 | 23.31659 | 113.16847 | 11443 ft | 345 kts | 194° |
| 2026-05-06 08:07 | 23.29316 | 113.16355 | 11063 ft | 340 kts | 194° |
| 2026-05-06 08:07 | 23.27007 | 113.15870 | 10690 ft | 336 kts | 194° |
| 2026-05-06 08:07 | 23.24736 | 113.15393 | 10345 ft | 330 kts | 194° |
| 2026-05-06 08:07 | 23.22532 | 113.14933 | 10294 ft | 316 kts | 194° |
| 2026-05-06 08:08 | 23.20426 | 113.14493 | 10244 ft | 301 kts | 194° |
| 2026-05-06 08:08 | 23.18420 | 113.14037 | 10194 ft | 287 kts | 197° |
| 2026-05-06 08:08 | 23.16521 | 113.13542 | 10148 ft | 274 kts | 198° |
| 2026-05-06 08:08 | 23.14722 | 113.13047 | 10076 ft | 262 kts | 199° |
| 2026-05-06 08:09 | 23.12955 | 113.12553 | 9777 ft | 261 kts | 198° |
| 2026-05-06 08:09 | 23.11203 | 113.12064 | 9441 ft | 259 kts | 198° |
| 2026-05-06 08:09 | 23.09470 | 113.11585 | 9105 ft | 258 kts | 198° |
| 2026-05-06 08:09 | 23.07726 | 113.11109 | 8787 ft | 256 kts | 198° |
| 2026-05-06 08:10 | 23.06014 | 113.10649 | 8464 ft | 254 kts | 197° |
| 2026-05-06 08:10 | 23.04294 | 113.10188 | 8145 ft | 252 kts | 197° |
| 2026-05-06 08:10 | 23.02596 | 113.09734 | 7834 ft | 251 kts | 197° |
| 2026-05-06 08:10 | 23.00906 | 113.09280 | 7519 ft | 249 kts | 197° |
| 2026-05-06 08:11 | 22.99232 | 113.08830 | 7232 ft | 246 kts | 196° |
| 2026-05-06 08:11 | 22.97563 | 113.08491 | 6991 ft | 243 kts | 181° |
| 2026-05-06 08:11 | 22.95970 | 113.09044 | 6763 ft | 246 kts | 146° |
| 2026-05-06 08:11 | 22.94970 | 113.10506 | 6526 ft | 249 kts | 111° |
| 2026-05-06 08:12 | 22.94525 | 113.12314 | 6290 ft | 247 kts | 106° |
| 2026-05-06 08:12 | 22.94237 | 113.14146 | 6042 ft | 248 kts | 88° |
| 2026-05-06 08:12 | 22.94758 | 113.15903 | 5799 ft | 248 kts | 54° |
| 2026-05-06 08:12 | 22.96047 | 113.17092 | 5544 ft | 244 kts | 21° |
| 2026-05-06 08:13 | 22.97693 | 113.17451 | 5298 ft | 242 kts | 4° |
| 2026-05-06 08:13 | 22.99354 | 113.17768 | 5070 ft | 243 kts | 12° |
| 2026-05-06 08:13 | 23.00992 | 113.18235 | 4833 ft | 243 kts | 14° |
| 2026-05-06 08:13 | 23.02615 | 113.18737 | 4583 ft | 242 kts | 15° |
| 2026-05-06 08:14 | 23.04234 | 113.19233 | 4341 ft | 241 kts | 15° |
| 2026-05-06 08:14 | 23.05845 | 113.19709 | 4094 ft | 239 kts | 14° |
| 2026-05-06 08:14 | 23.07445 | 113.20170 | 3877 ft | 236 kts | 14° |
| 2026-05-06 08:14 | 23.09009 | 113.20620 | 3699 ft | 232 kts | 14° |
| 2026-05-06 08:15 | 23.10571 | 113.21047 | 3488 ft | 229 kts | 13° |
| 2026-05-06 08:15 | 23.12033 | 113.21440 | 3317 ft | 225 kts | 14° |
| 2026-05-06 08:15 | 23.13545 | 113.21846 | 3116 ft | 223 kts | 14° |
| 2026-05-06 08:15 | 23.15033 | 113.22246 | 2977 ft | 223 kts | 14° |
| 2026-05-06 08:16 | 23.16383 | 113.22609 | 2893 ft | 219 kts | 14° |
| 2026-05-06 08:16 | 23.17861 | 113.23007 | 2874 ft | 213 kts | 14° |
| 2026-05-06 08:16 | 23.19263 | 113.23384 | 2870 ft | 199 kts | 14° |
| 2026-05-06 08:16 | 23.20550 | 113.23730 | 2827 ft | 183 kts | 14° |
| 2026-05-06 08:17 | 23.21725 | 113.24046 | 2792 ft | 170 kts | 15° |
| 2026-05-06 08:17 | 23.22847 | 113.24348 | 2755 ft | 164 kts | 15° |
| 2026-05-06 08:17 | 23.23944 | 113.24643 | 2708 ft | 162 kts | 15° |
| 2026-05-06 08:17 | 23.25039 | 113.24939 | 2541 ft | 161 kts | 15° |
| 2026-05-06 08:18 | 23.26127 | 113.25232 | 2352 ft | 160 kts | 15° |
| 2026-05-06 08:18 | 23.27199 | 113.25521 | 2165 ft | 160 kts | 15° |
| 2026-05-06 08:18 | 23.28269 | 113.25809 | 1972 ft | 156 kts | 15° |
| 2026-05-06 08:18 | 23.29306 | 113.26088 | 1763 ft | 152 kts | 15° |
| 2026-05-06 08:19 | 23.30329 | 113.26365 | 1529 ft | 150 kts | 14° |
| 2026-05-06 08:19 | 23.31343 | 113.26638 | 1352 ft | 150 kts | 15° |
| 2026-05-06 08:19 | 23.32364 | 113.26912 | 1160 ft | 149 kts | 15° |
| 2026-05-06 08:19 | 23.33365 | 113.27188 | 943 ft | 149 kts | 16° |
| 2026-05-06 08:20 | 23.34372 | 113.27460 | 747 ft | 148 kts | 15° |
| 2026-05-06 08:20 | 23.35368 | 113.27726 | 571 ft | 146 kts | 15° |
| 2026-05-06 08:20 | 23.36331 | 113.27986 | 371 ft | 143 kts | 17° |
| 2026-05-06 08:20 | 23.37296 | 113.28247 | 162 ft | 142 kts | 15° |
| 2026-05-06 08:21 | 23.38224 | 113.28499 | 59 ft | 132 kts | 15° |
| 2026-05-06 08:21 | 23.38975 | 113.28698 | 57 ft | 83 kts | 14° |
| 2026-05-06 08:21 | 23.39360 | 113.28812 | 50 ft | 41 kts | 27° |
| 2026-05-06 08:21 | 23.39496 | 113.28935 | 50 ft | 13 kts | 43° |
| 2026-05-06 08:22 | 23.39571 | 113.29009 | 50 ft | 16 kts | 41° |
| 2026-05-06 08:22 | 23.39630 | 113.29065 | 56 ft | 9 kts | 34° |
| 2026-05-06 08:22 | 23.39699 | 113.29087 | 52 ft | 12 kts | 14° |
| 2026-05-06 08:22 | 23.39792 | 113.29112 | 54 ft | 16 kts | 14° |
| 2026-05-06 08:23 | 23.39896 | 113.29140 | 57 ft | 16 kts | 14° |
| 2026-05-06 08:23 | 23.40014 | 113.29172 | 56 ft | 15 kts | 13° |
| 2026-05-06 08:23 | 23.40093 | 113.29194 | 54 ft | 10 kts | 20° |
| 2026-05-06 08:23 | 23.40093 | 113.29268 | 59 ft | 12 kts | 104° |
| 2026-05-06 08:24 | 23.40079 | 113.29332 | 59 ft | 4 kts | 101° |
| 2026-05-06 08:24 | 23.40093 | 113.29372 | 54 ft | 7 kts | 44° |
| 2026-05-06 08:24 | 23.40153 | 113.29390 | 52 ft | 11 kts | 13° |
| 2026-05-06 08:24 | 23.40230 | 113.29410 | 55 ft | 7 kts | 14° |
| 2026-05-06 08:25 | 23.40243 | 113.29465 | 54 ft | 10 kts | 102° |
| 2026-05-06 08:25 | 23.40227 | 113.29540 | 59 ft | 7 kts | 104° |
| 2026-05-06 08:25 | 23.40214 | 113.29589 | 56 ft | 7 kts | 110° |
| 2026-05-06 08:25 | 23.40179 | 113.29624 | 52 ft | 5 kts | 150° |
| 2026-05-06 08:26 | 23.40163 | 113.29660 | 59 ft | 3 kts | 99° |
| 2026-05-06 08:26 | 23.40157 | 113.29687 | 53 ft | 3 kts | 104° |
| 2026-05-06 08:26 | 23.40151 | 113.29709 | 59 ft | 3 kts | 103° |
| 2026-05-06 08:26 | 23.40148 | 113.29726 | 54 ft | 0 kts | 103° |